Time;durP1;ratioP1;P1;durP2;ratioP2;P2;SDS_P1;SDS_P2;PMS_P1;PMS_P2;Temp;Humidity;BMP_temperature;BMP_pressure;BME280_temperature;BME280_humidity;BME280_pressure;Samples;Min_cycle;Max_cycle;Signal;HPM_P1;HPM_P2
2021/10/31 00:02:23;;;;;;;20.80;8.50;;;;;;;10.15;75.91;99209.63;5105226;28;20024;-70
2021/10/31 00:04:49;;;;;;;24.17;13.13;;;;;;;10.00;76.34;99218.66;5105442;28;20088;-70
2021/10/31 00:07:14;;;;;;;30.55;18.55;;;;;;;9.90;76.58;99208.50;5105076;28;20043;-70
2021/10/31 00:09:39;;;;;;;26.52;15.38;;;;;;;9.90;76.95;99216.28;5105189;28;20087;-70
2021/10/31 00:12:05;;;;;;;23.38;13.93;;;;;;;9.98;76.48;99218.72;5105329;28;20024;-70
2021/10/31 00:14:31;;;;;;;30.17;16.73;;;;;;;9.91;77.05;99214.53;5105268;28;20047;-70
2021/10/31 00:16:59;;;;;;;27.17;18.45;;;;;;;10.00;76.31;99200.50;5105189;28;20456;-71
2021/10/31 00:19:28;;;;;;;27.38;16.00;;;;;;;9.91;76.62;99205.03;5105085;28;20020;-70
2021/10/31 00:21:53;;;;;;;30.92;18.17;;;;;;;9.88;76.96;99194.75;5105032;28;20024;-69
2021/10/31 00:24:18;;;;;;;34.45;19.50;;;;;;;9.81;77.37;99184.56;5104928;28;20091;-70
2021/10/31 00:26:44;;;;;;;22.83;12.70;;;;;;;9.90;76.98;99190.34;5104709;28;20047;-70
2021/10/31 00:29:09;;;;;;;37.42;21.15;;;;;;;9.83;77.34;99190.53;5086672;28;20118;-70
2021/10/31 00:31:34;;;;;;;26.00;12.95;;;;;;;9.87;77.74;99184.41;5104714;28;20024;-71
2021/10/31 00:34:00;;;;;;;24.15;12.75;;;;;;;10.01;76.57;99187.50;5105294;28;20012;-71
2021/10/31 00:36:25;;;;;;;37.03;23.65;;;;;;;9.81;77.61;99197.53;5104703;28;20053;-69
2021/10/31 00:38:51;;;;;;;31.42;17.40;;;;;;;9.70;78.20;99198.63;5104420;28;20024;-70
2021/10/31 00:41:16;;;;;;;30.15;15.63;;;;;;;9.80;77.70;99188.91;5104603;28;20016;-70
2021/10/31 00:43:42;;;;;;;28.10;16.45;;;;;;;9.68;78.64;99195.22;5104371;28;20462;-70
2021/10/31 00:46:08;;;;;;;34.45;20.30;;;;;;;9.77;77.92;99192.44;5104391;28;20103;-70
2021/10/31 00:48:34;;;;;;;32.92;22.38;;;;;;;9.75;77.88;99188.16;5104349;28;20060;-69
2021/10/31 00:50:59;;;;;;;24.17;13.00;;;;;;;9.89;77.37;99183.47;5104702;28;20031;-70
2021/10/31 00:53:25;;;;;;;29.83;15.23;;;;;;;9.79;77.88;99182.84;5104576;28;20126;-70
2021/10/31 00:55:51;;;;;;;27.92;14.93;;;;;;;9.94;77.34;99179.91;5104359;28;20028;-70
2021/10/31 00:58:18;;;;;;;36.10;21.02;;;;;;;9.78;77.47;99185.47;5104376;28;20023;-70
2021/10/31 01:00:43;;;;;;;28.80;15.50;;;;;;;9.79;77.70;99192.38;5104125;28;20030;-70
2021/10/31 01:03:09;;;;;;;36.10;21.33;;;;;;;9.75;77.91;99178.66;5104080;28;20040;-70
2021/10/31 01:05:42;;;;;;;26.95;14.68;;;;;;;9.83;78.02;99186.22;5104050;28;20583;-70
2021/10/31 01:08:21;;;;;;;33.10;20.73;;;;;;;9.79;77.92;99192.38;5103961;28;20087;-70
2021/10/31 01:10:56;;;;;;;26.40;16.30;;;;;;;9.82;77.75;99184.53;5104026;28;20256;-71
2021/10/31 01:13:40;;;;;;;32.28;20.45;;;;;;;9.76;78.09;99188.09;5104251;28;20024;-69
2021/10/31 01:16:28;;;;;;;30.52;16.17;;;;;;;9.78;78.36;99180.28;5104011;28;20528;-70
2021/10/31 01:18:53;;;;;;;30.00;19.60;;;;;;;9.79;78.38;99189.78;5103881;28;20031;-69
2021/10/31 01:21:59;;;;;;;33.80;21.52;;;;;;;9.83;78.09;99180.19;5103941;28;20403;-69
2021/10/31 01:24:51;;;;;;;36.13;21.75;;;;;;;9.80;78.22;99170.75;5050922;28;20040;-69
2021/10/31 01:27:25;;;;;;;27.33;13.43;;;;;;;9.95;77.68;99166.94;5103615;28;20062;-69
2021/10/31 01:30:12;;;;;;;30.58;16.13;;;;;;;9.89;77.78;99172.25;5103799;28;20024;-69
2021/10/31 01:32:55;;;;;;;25.27;14.75;;;;;;;9.95;77.62;99169.53;5103076;28;20020;-69
2021/10/31 01:35:30;;;;;;;33.60;20.27;;;;;;;9.71;78.61;99177.03;5103527;28;20040;-70
2021/10/31 01:38:27;;;;;;;30.48;15.82;;;;;;;9.68;79.26;99174.47;5103388;28;20030;-69
2021/10/31 01:41:10;;;;;;;31.92;21.05;;;;;;;9.61;79.80;99165.16;5103411;28;20024;-69
2021/10/31 01:43:56;;;;;;;34.70;21.90;;;;;;;9.83;78.61;99168.06;5103300;28;20158;-68
2021/10/31 01:47:03;;;;;;;45.67;26.92;;;;;;;9.73;79.42;99172.63;5103509;28;20024;-69
2021/10/31 01:49:31;;;;;;;42.75;27.42;;;;;;;9.61;79.95;99172.94;5103172;28;20066;-68
2021/10/31 01:52:01;;;;;;;47.95;30.98;;;;;;;9.44;81.03;99176.78;5103503;28;20028;-69
2021/10/31 01:54:34;;;;;;;53.53;32.50;;;;;;;9.48;81.54;99182.75;5103299;28;20016;-71
2021/10/31 01:57:04;;;;;;;54.15;32.97;;;;;;;9.40;82.07;99172.56;5102929;28;20024;-71
2021/10/31 01:59:33;;;;;;;52.55;31.45;;;;;;;9.27;83.24;99184.94;5103111;28;20049;-70
2021/10/31 02:02:02;;;;;;;52.88;35.50;;;;;;;9.31;83.47;99184.00;5084646;28;20024;-70
2021/10/31 02:04:32;;;;;;;56.72;34.65;;;;;;;9.18;84.32;99179.09;5102925;28;20302;-71
2021/10/31 02:06:59;;;;;;;55.60;31.85;;;;;;;9.24;84.54;99185.88;5102990;28;20046;-71
2021/10/31 02:09:29;;;;;;;57.80;34.72;;;;;;;9.31;84.67;99191.78;5103223;28;20024;-70
2021/10/31 02:11:55;;;;;;;68.60;38.60;;;;;;;9.24;85.20;99190.19;5103048;28;20019;-70
2021/10/31 02:14:24;;;;;;;62.83;34.03;;;;;;;9.27;85.58;99191.00;5102955;28;20036;-74
2021/10/31 02:16:49;;;;;;;63.83;34.38;;;;;;;9.20;86.41;99181.63;5102887;28;20028;-74
2021/10/31 02:19:25;;;;;;;68.30;43.20;;;;;;;9.31;86.18;99196.97;5102862;28;20088;-73
2021/10/31 02:21:56;;;;;;;74.53;41.47;;;;;;;9.15;87.38;99188.69;5102884;28;20024;-76
2021/10/31 02:24:22;;;;;;;75.97;41.55;;;;;;;9.23;87.67;99198.88;5084363;28;20025;-77
2021/10/31 02:26:49;;;;;;;81.88;44.28;;;;;;;9.21;87.98;99198.03;5102645;28;20075;-74
2021/10/31 02:29:15;;;;;;;89.75;49.85;;;;;;;9.22;88.31;99192.00;5102858;28;20751;-71
2021/10/31 02:31:40;;;;;;;86.30;49.70;;;;;;;9.23;88.47;99197.13;5102777;28;20047;-69
2021/10/31 02:34:06;;;;;;;79.43;41.38;;;;;;;9.29;88.94;99193.53;5102509;28;20028;-68
2021/10/31 02:36:33;;;;;;;100.35;51.90;;;;;;;9.21;89.23;99190.25;5102562;28;20031;-68
2021/10/31 02:39:01;;;;;;;107.55;49.90;;;;;;;9.26;89.27;99191.03;5102444;28;20475;-69
2021/10/31 02:41:28;;;;;;;93.38;47.20;;;;;;;9.30;89.46;99193.50;5102729;28;20036;-66
2021/10/31 02:43:54;;;;;;;91.43;46.13;;;;;;;9.32;90.10;99209.00;5103716;28;20036;-67
2021/10/31 02:46:19;;;;;;;88.93;41.80;;;;;;;9.37;90.49;99216.69;5106452;28;20031;-66
2021/10/31 02:48:45;;;;;;;81.60;41.58;;;;;;;9.39;91.13;99212.31;5106604;28;20377;-67
2021/10/31 02:51:33;;;;;;;105.07;49.25;;;;;;;9.48;91.28;99216.44;5106634;28;20091;-66
2021/10/31 02:54:09;;;;;;;89.72;38.90;;;;;;;9.50;92.21;99206.88;5106515;28;20024;-68
2021/10/31 02:56:42;;;;;;;98.80;39.90;;;;;;;9.55;92.74;99211.06;5106216;28;20079;-67
2021/10/31 02:59:42;;;;;;;96.75;43.70;;;;;;;9.66;93.48;99203.03;5088226;28;20053;-67
2021/10/31 03:02:09;;;;;;;102.75;44.35;;;;;;;9.71;93.77;99208.13;5106144;28;20056;-66
2021/10/31 03:04:35;;;;;;;107.95;44.90;;;;;;;9.76;94.18;99214.03;5106235;28;20051;-67
2021/10/31 03:07:02;;;;;;;102.72;42.53;;;;;;;9.84;94.33;99210.41;5106249;28;20032;-67
2021/10/31 03:09:28;;;;;;;114.22;45.67;;;;;;;9.88;94.53;99196.47;5106154;28;20016;-68
2021/10/31 03:12:01;;;;;;;113.25;46.80;;;;;;;9.91;94.67;99205.03;5106368;28;20108;-68
2021/10/31 03:14:26;;;;;;;128.43;48.15;;;;;;;9.96;94.97;99179.00;5106210;28;20028;-68
2021/10/31 03:16:51;;;;;;;121.63;49.42;;;;;;;10.02;94.86;99159.81;5106031;28;20030;-68
2021/10/31 03:19:17;;;;;;;123.40;47.70;;;;;;;10.08;94.71;99161.41;5106122;28;20114;-68
2021/10/31 03:21:42;;;;;;;92.88;40.92;;;;;;;10.11;94.56;99169.13;5106044;28;20028;-68
2021/10/31 03:24:07;;;;;;;90.53;40.70;;;;;;;10.13;94.21;99150.00;5105979;28;20087;-68
2021/10/31 03:26:33;;;;;;;99.68;44.03;;;;;;;10.19;93.81;99132.59;5105578;28;20094;-69
2021/10/31 03:28:58;;;;;;;102.13;41.70;;;;;;;10.14;94.24;99158.66;5105716;28;20027;-68
2021/10/31 03:31:24;;;;;;;98.93;42.10;;;;;;;10.13;94.27;99144.84;5105618;28;20024;-68
2021/10/31 03:33:49;;;;;;;108.18;43.53;;;;;;;10.14;93.94;99115.41;5105589;28;20020;-68
2021/10/31 03:36:14;;;;;;;116.38;46.53;;;;;;;10.15;94.03;99152.56;5106020;28;20016;-69
2021/10/31 03:38:40;;;;;;;128.55;46.08;;;;;;;10.09;94.20;99178.66;5087236;28;20100;-68
2021/10/31 03:41:05;;;;;;;107.65;42.58;;;;;;;10.03;94.26;99192.66;5105549;28;20032;-69
2021/10/31 03:43:30;;;;;;;84.72;33.85;;;;;;;10.00;94.47;99195.34;5105421;28;20018;-68
2021/10/31 03:45:55;;;;;;;81.13;34.80;;;;;;;9.96;94.60;99204.06;5105506;28;20059;-68
2021/10/31 03:48:21;;;;;;;98.47;40.50;;;;;;;9.98;94.71;99212.66;5105156;28;20028;-68
2021/10/31 03:50:47;;;;;;;101.82;41.45;;;;;;;9.98;94.86;99212.66;5105373;28;20027;-68
2021/10/31 03:53:12;;;;;;;104.05;37.58;;;;;;;9.98;95.19;99220.44;5105315;28;20042;-67
2021/10/31 03:55:37;;;;;;;101.20;38.67;;;;;;;9.99;95.30;99225.59;5104811;28;20026;-68
2021/10/31 03:58:03;;;;;;;82.22;32.20;;;;;;;9.99;95.64;99233.34;5105086;28;20039;-67
2021/10/31 04:00:28;;;;;;;77.25;33.35;;;;;;;10.02;95.67;99241.06;5105061;28;20034;-68
2021/10/31 04:02:53;;;;;;;76.30;32.95;;;;;;;10.06;95.87;99241.84;5105024;28;20146;-67
2021/10/31 04:05:19;;;;;;;76.75;28.60;;;;;;;10.09;95.78;99246.09;5104982;28;20031;-68
2021/10/31 04:07:47;;;;;;;84.20;34.67;;;;;;;10.09;95.92;99246.94;5104870;28;20042;-68
2021/10/31 04:10:12;;;;;;;102.57;36.30;;;;;;;10.16;95.86;99256.28;5105325;28;20024;-67
2021/10/31 04:12:37;;;;;;;104.75;39.10;;;;;;;10.17;96.25;99252.78;5104978;28;20042;-68
2021/10/31 04:15:05;;;;;;;106.70;38.33;;;;;;;10.22;96.08;99251.81;5104844;28;20031;-68
2021/10/31 04:17:31;;;;;;;99.85;38.13;;;;;;;10.22;95.96;99242.31;5104459;28;20329;-68
2021/10/31 04:19:56;;;;;;;76.35;29.33;;;;;;;10.26;96.12;99258.63;5086507;28;20087;-68
2021/10/31 04:22:22;;;;;;;90.20;35.13;;;;;;;10.31;96.28;99261.09;5104477;28;20020;-68
2021/10/31 04:24:47;;;;;;;85.60;31.02;;;;;;;10.25;96.42;99256.94;5104588;28;20480;-68
2021/10/31 04:27:12;;;;;;;90.95;37.60;;;;;;;10.33;96.31;99267.09;5104662;28;20068;-69
2021/10/31 04:29:38;;;;;;;100.38;37.55;;;;;;;10.35;96.53;99270.53;5104595;28;20020;-69
2021/10/31 04:32:04;;;;;;;92.32;32.83;;;;;;;10.36;96.52;99261.84;5104611;28;20034;-69
2021/10/31 04:34:29;;;;;;;104.13;35.55;;;;;;;10.32;96.39;99268.84;5104322;28;20126;-69
2021/10/31 04:36:55;;;;;;;88.25;31.40;;;;;;;10.34;96.28;99271.38;5104259;28;20020;-69
2021/10/31 04:39:20;;;;;;;88.70;35.85;;;;;;;10.33;96.19;99275.75;5104700;28;20344;-68
2021/10/31 04:41:47;;;;;;;94.93;35.58;;;;;;;10.36;96.58;99280.84;5104363;28;20073;-69
2021/10/31 04:44:14;;;;;;;98.03;36.75;;;;;;;10.37;96.72;99281.69;5104547;28;20059;-69
2021/10/31 04:46:40;;;;;;;84.32;34.80;;;;;;;10.41;96.67;99285.94;5104421;28;20022;-69
2021/10/31 04:49:05;;;;;;;97.13;33.17;;;;;;;10.37;96.95;99281.69;5104188;28;20044;-69
2021/10/31 04:51:30;;;;;;;91.50;34.28;;;;;;;10.42;96.42;99285.03;5104250;28;20016;-69
2021/10/31 04:53:56;;;;;;;105.07;35.88;;;;;;;10.41;96.34;99291.94;5104060;28;20053;-69
2021/10/31 04:56:23;;;;;;;91.80;33.42;;;;;;;10.41;96.28;99298.91;5103993;28;20020;-69
2021/10/31 04:58:49;;;;;;;95.20;34.25;;;;;;;10.38;96.15;99298.97;5104095;28;20054;-69
2021/10/31 05:01:18;;;;;;;93.72;33.47;;;;;;;10.37;96.22;99303.31;5104358;28;20028;-69
2021/10/31 05:03:44;;;;;;;100.97;35.90;;;;;;;10.33;96.17;99299.09;5103790;28;20119;-71
2021/10/31 05:06:09;;;;;;;91.50;32.22;;;;;;;10.29;96.12;99303.50;5103466;28;20020;-69
2021/10/31 05:08:34;;;;;;;109.50;38.28;;;;;;;10.28;96.11;99303.53;5103700;28;20027;-69
2021/10/31 05:11:00;;;;;;;85.22;34.17;;;;;;;10.26;96.18;99305.31;5103751;28;20065;-69
2021/10/31 05:13:25;;;;;;;113.43;38.20;;;;;;;10.26;96.33;99315.69;5103794;28;20028;-69
2021/10/31 05:15:50;;;;;;;108.53;36.33;;;;;;;10.26;96.36;99306.19;5103657;28;20054;-69
2021/10/31 05:18:44;;;;;;;89.43;36.47;;;;;;;10.27;96.64;99310.47;5103719;28;20028;-69
2021/10/31 05:21:10;;;;;;;101.65;33.90;;;;;;;10.31;96.39;99318.16;5103733;28;20024;-69
2021/10/31 05:23:35;;;;;;;95.63;34.78;;;;;;;10.30;96.72;99312.16;5103675;28;20042;-69
2021/10/31 05:26:01;;;;;;;90.20;33.63;;;;;;;10.29;96.85;99311.28;5103364;28;20048;-71
2021/10/31 05:28:28;;;;;;;116.47;39.47;;;;;;;10.33;96.91;99321.59;5103382;28;20027;-69
2021/10/31 05:30:54;;;;;;;94.97;34.45;;;;;;;10.36;96.76;99326.69;5103709;28;20024;-69
2021/10/31 05:33:21;;;;;;;97.70;37.00;;;;;;;10.34;96.71;99326.75;5103491;28;20059;-69
2021/10/31 05:35:46;;;;;;;79.68;31.80;;;;;;;10.39;96.58;99327.47;5103824;28;20028;-69
2021/10/31 05:38:13;;;;;;;77.43;32.17;;;;;;;10.36;96.64;99324.97;5103484;28;20035;-69
2021/10/31 05:40:39;;;;;;;86.95;33.70;;;;;;;10.37;96.67;99326.66;5103820;28;20103;-69
2021/10/31 05:43:04;;;;;;;82.95;32.95;;;;;;;10.38;96.34;99336.13;5085233;28;20478;-68
2021/10/31 05:45:29;;;;;;;80.60;32.33;;;;;;;10.37;96.50;99329.25;5103157;28;20092;-68
2021/10/31 05:47:55;;;;;;;92.28;33.08;;;;;;;10.33;96.51;99332.81;5103489;28;20024;-68
2021/10/31 05:50:21;;;;;;;82.13;29.80;;;;;;;10.35;96.57;99331.03;5103363;28;20053;-68
2021/10/31 05:52:54;;;;;;;78.07;30.17;;;;;;;10.36;96.67;99331.88;5103270;28;20032;-69
2021/10/31 05:55:20;;;;;;;73.07;28.13;;;;;;;10.37;96.66;99339.63;5103521;28;20016;-68
2021/10/31 05:57:46;;;;;;;63.65;26.52;;;;;;;10.35;96.79;99335.38;5103159;28;20166;-67
2021/10/31 06:00:13;;;;;;;69.75;28.13;;;;;;;10.35;96.55;99336.22;5103250;28;20071;-68
2021/10/31 06:02:39;;;;;;;72.05;27.40;;;;;;;10.34;96.53;99349.22;5103019;28;20020;-67
2021/10/31 06:05:05;;;;;;;71.40;24.55;;;;;;;10.29;96.59;99346.75;5102976;28;20042;-67
2021/10/31 06:07:31;;;;;;;67.85;25.88;;;;;;;10.35;96.76;99345.75;5102980;28;20035;-69
2021/10/31 06:09:58;;;;;;;74.45;27.80;;;;;;;10.33;96.46;99356.19;5103174;28;20028;-68
2021/10/31 06:12:24;;;;;;;65.55;26.55;;;;;;;10.35;96.71;99361.31;5103184;28;20030;-69
2021/10/31 06:14:50;;;;;;;74.97;27.23;;;;;;;10.36;96.94;99363.00;5103239;28;20023;-69
2021/10/31 06:17:15;;;;;;;73.03;24.88;;;;;;;10.43;96.50;99363.72;5103156;28;20414;-69
2021/10/31 06:19:41;;;;;;;70.35;27.67;;;;;;;10.42;96.81;99365.47;5102847;28;20072;-68
2021/10/31 06:22:06;;;;;;;59.70;24.35;;;;;;;10.40;96.63;99373.28;5102967;28;20047;-69
2021/10/31 06:24:32;;;;;;;64.60;25.92;;;;;;;10.41;96.60;99374.97;5102813;28;20378;-68
2021/10/31 06:26:58;;;;;;;68.78;27.33;;;;;;;10.43;96.73;99380.16;5084239;28;20101;-68
2021/10/31 06:29:26;;;;;;;69.68;27.70;;;;;;;10.42;96.82;99378.44;5102318;28;20490;-68
2021/10/31 06:31:52;;;;;;;59.97;23.95;;;;;;;10.43;96.81;99385.34;5102907;28;20024;-68
2021/10/31 06:34:17;;;;;;;78.03;27.92;;;;;;;10.47;96.60;99386.13;5084388;28;20103;-68
2021/10/31 06:36:44;;;;;;;73.80;26.40;;;;;;;10.44;96.40;99381.00;5102823;28;20077;-68
2021/10/31 06:39:10;;;;;;;68.38;26.67;;;;;;;10.48;96.48;99387.84;5102628;28;20024;-68
2021/10/31 06:41:35;;;;;;;71.70;24.23;;;;;;;10.46;96.74;99389.59;5102502;28;20055;-69
2021/10/31 06:44:00;;;;;;;72.15;29.17;;;;;;;10.47;96.78;99388.72;5102418;28;20024;-69
2021/10/31 06:46:26;;;;;;;80.30;26.90;;;;;;;10.47;96.92;99392.19;5084315;28;20054;-69
2021/10/31 06:48:52;;;;;;;73.10;28.38;;;;;;;10.50;96.39;99386.91;5102182;28;20047;-69
2021/10/31 06:51:19;;;;;;;63.28;25.48;;;;;;;10.53;96.47;99406.75;5102288;28;20021;-69
2021/10/31 06:53:44;;;;;;;69.53;26.63;;;;;;;10.51;96.64;99406.78;5102350;28;20047;-68
2021/10/31 06:56:11;;;;;;;72.70;27.17;;;;;;;10.50;96.69;99402.50;5102419;28;20024;-68
2021/10/31 06:58:36;;;;;;;78.07;27.02;;;;;;;10.49;96.73;99408.59;5101936;28;20028;-69
2021/10/31 07:01:02;;;;;;;80.75;28.95;;;;;;;10.57;96.51;99418.78;5102051;28;20084;-69
2021/10/31 07:03:27;;;;;;;66.53;25.48;;;;;;;10.55;96.45;99415.34;5102018;28;20127;-68
2021/10/31 07:05:53;;;;;;;66.25;25.50;;;;;;;10.55;96.58;99425.72;5102500;28;20020;-68
2021/10/31 07:08:18;;;;;;;68.22;25.90;;;;;;;10.54;96.72;99440.44;5102266;28;20024;-69
2021/10/31 07:10:43;;;;;;;72.47;25.85;;;;;;;10.52;96.68;99436.19;5102173;28;20024;-68
2021/10/31 07:13:09;;;;;;;62.90;24.92;;;;;;;10.51;96.54;99429.31;5102296;28;20034;-69
2021/10/31 07:15:34;;;;;;;63.10;24.00;;;;;;;10.60;96.66;99444.66;5102196;28;20028;-69
2021/10/31 07:18:00;;;;;;;67.63;23.75;;;;;;;10.61;96.79;99451.53;5102165;28;20028;-69
2021/10/31 07:20:28;;;;;;;68.35;24.20;;;;;;;10.59;96.58;99455.06;5102394;28;20023;-69
2021/10/31 07:22:53;;;;;;;66.35;23.63;;;;;;;10.59;96.64;99453.31;5102471;28;20012;-69
2021/10/31 07:25:22;;;;;;;70.95;22.65;;;;;;;10.56;96.58;99444.75;5102084;28;20036;-69
2021/10/31 07:27:47;;;;;;;60.95;23.70;;;;;;;10.62;96.67;99462.78;5101965;28;20028;-69
2021/10/31 07:30:15;;;;;;;64.60;23.17;;;;;;;10.65;96.77;99467.91;5103654;28;20031;-70
2021/10/31 07:32:41;;;;;;;56.53;20.77;;;;;;;10.67;96.54;99460.94;5087211;28;20031;-69
2021/10/31 07:35:07;;;;;;;59.28;19.33;;;;;;;10.62;96.73;99460.19;5106124;28;20028;-72
2021/10/31 07:37:33;;;;;;;49.03;18.70;;;;;;;10.72;96.27;99472.03;5105752;28;20057;-71
2021/10/31 07:39:59;;;;;;;54.53;16.98;;;;;;;10.74;96.55;99472.00;5105756;28;20159;-71
2021/10/31 07:42:28;;;;;;;42.60;16.45;;;;;;;10.74;96.48;99469.41;5105382;28;20060;-75
2021/10/31 07:44:55;;;;;;;46.00;15.02;;;;;;;10.75;96.02;99478.91;5105415;28;20075;-73
2021/10/31 07:47:20;;;;;;;39.80;13.80;;;;;;;10.69;96.31;99476.47;5105757;28;20030;-70
2021/10/31 07:49:45;;;;;;;43.38;14.43;;;;;;;10.53;96.10;99458.66;5105514;28;20028;-74
2021/10/31 07:52:11;;;;;;;45.63;13.20;;;;;;;10.60;96.00;99475.78;5105658;28;20059;-73
2021/10/31 07:54:36;;;;;;;37.90;12.43;;;;;;;10.53;96.05;99482.00;5105442;28;20083;-74
2021/10/31 07:57:02;;;;;;;33.08;12.25;;;;;;;10.47;96.06;99476.97;5105475;28;20028;-73
2021/10/31 07:59:27;;;;;;;41.67;12.70;;;;;;;10.51;95.94;99496.78;5105403;28;20039;-72
2021/10/31 08:01:53;;;;;;;37.83;11.52;;;;;;;10.51;96.06;99500.19;5086964;28;20031;-74
2021/10/31 08:04:18;;;;;;;39.53;11.23;;;;;;;10.60;96.04;99511.28;5105183;28;20100;-75
2021/10/31 08:06:44;;;;;;;36.90;12.30;;;;;;;10.68;96.57;99511.09;5087315;28;20031;-76
2021/10/31 08:09:10;;;;;;;28.52;8.93;;;;;;;11.00;96.96;99512.94;5086961;28;20016;-77
2021/10/31 08:11:35;;;;;;;31.52;9.25;;;;;;;11.32;96.58;99505.22;5086899;28;20027;-78
2021/10/31 08:14:01;;;;;;;25.90;8.27;;;;;;;11.87;95.88;99496.78;5105033;28;20016;-76
2021/10/31 08:16:27;;;;;;;32.28;7.88;;;;;;;12.42;94.25;99508.25;5105033;28;20036;-75
2021/10/31 08:18:52;;;;;;;27.17;6.55;;;;;;;12.71;92.37;99516.91;5105007;28;20026;-74
2021/10/31 08:21:18;;;;;;;25.13;5.97;;;;;;;12.79;91.34;99511.44;5105300;28;20082;-73
2021/10/31 08:23:43;;;;;;;24.40;6.32;;;;;;;12.88;90.62;99518.97;5105060;28;20059;-70
2021/10/31 08:26:09;;;;;;;31.38;7.22;;;;;;;12.92;89.87;99522.34;5104910;28;20488;-69
2021/10/31 08:28:38;;;;;;;15.15;5.03;;;;;;;12.69;90.09;99525.66;5104723;28;20032;-68
2021/10/31 08:31:04;;;;;;;23.42;5.20;;;;;;;12.81;90.12;99520.03;5104968;28;20026;-67
2021/10/31 08:33:34;;;;;;;23.15;5.32;;;;;;;13.13;88.91;99525.13;5104700;28;20079;-66
2021/10/31 08:36:01;;;;;;;21.85;4.55;;;;;;;13.35;89.09;99520.06;5086755;28;20393;-67
2021/10/31 08:38:26;;;;;;;16.80;4.07;;;;;;;13.74;87.16;99520.47;5104394;28;20020;-67
2021/10/31 08:40:54;;;;;;;23.33;4.25;;;;;;;14.29;85.82;99526.31;5104137;28;20046;-69
2021/10/31 08:43:20;;;;;;;17.90;4.57;;;;;;;14.85;83.96;99532.88;5104097;28;20036;-68
2021/10/31 08:45:46;;;;;;;15.35;3.38;;;;;;;15.38;82.57;99537.72;5104420;28;20024;-70
2021/10/31 08:48:13;;;;;;;17.58;3.97;;;;;;;15.76;80.42;99531.72;5104377;28;20030;-71
2021/10/31 08:50:39;;;;;;;20.45;4.25;;;;;;;15.95;78.64;99526.53;5104478;28;20027;-70
2021/10/31 08:53:05;;;;;;;21.83;3.65;;;;;;;16.07;79.17;99524.31;5104396;28;20043;-70
2021/10/31 08:55:31;;;;;;;14.20;3.55;;;;;;;16.46;77.87;99519.88;5104453;28;20051;-69
2021/10/31 08:57:57;;;;;;;15.35;2.97;;;;;;;16.84;76.15;99509.31;5104133;28;20020;-71
2021/10/31 09:00:23;;;;;;;14.05;2.95;;;;;;;17.16;76.06;99520.94;5104393;28;20038;-71
2021/10/31 09:02:48;;;;;;;10.98;3.78;;;;;;;17.58;74.68;99527.56;5104423;28;20043;-71
2021/10/31 09:05:14;;;;;;;9.77;2.92;;;;;;;17.96;73.57;99531.72;5104314;28;20024;-70
2021/10/31 09:07:39;;;;;;;8.10;2.83;;;;;;;18.25;71.47;99530.22;5104169;28;20430;-72
2021/10/31 09:10:05;;;;;;;18.65;3.55;;;;;;;17.99;69.90;99543.81;5104240;28;20072;-72
2021/10/31 09:12:30;;;;;;;25.83;3.60;;;;;;;17.45;69.80;99537.81;5103987;28;20024;-71
2021/10/31 09:14:56;;;;;;;15.55;3.08;;;;;;;17.27;70.18;99541.41;5104005;28;20119;-71
2021/10/31 09:17:22;;;;;;;13.43;3.33;;;;;;;16.85;70.58;99546.88;5104109;28;20020;-71
2021/10/31 09:19:47;;;;;;;10.77;2.88;;;;;;;16.62;72.42;99540.97;5085879;28;20472;-71
2021/10/31 09:22:13;;;;;;;11.52;3.58;;;;;;;16.63;71.42;99544.44;5104022;28;20239;-71
2021/10/31 09:24:39;;;;;;;10.95;2.67;;;;;;;16.81;72.09;99543.56;5103986;28;20023;-71
2021/10/31 09:27:05;;;;;;;8.75;2.90;;;;;;;16.93;71.00;99551.75;5103740;28;20100;-73
2021/10/31 09:29:31;;;;;;;15.43;3.38;;;;;;;16.63;70.64;99542.66;5103764;28;20043;-72
2021/10/31 09:31:59;;;;;;;15.25;2.83;;;;;;;16.62;72.29;99553.22;5103908;28;20085;-72
2021/10/31 09:34:29;;;;;;;13.15;3.00;;;;;;;16.81;70.14;99551.41;5103313;28;20084;-72
2021/10/31 09:36:57;;;;;;;10.02;3.10;;;;;;;16.84;69.59;99553.88;5103632;28;20016;-72
2021/10/31 09:39:23;;;;;;;7.55;2.85;;;;;;;16.59;69.03;99557.69;5103428;28;20083;-73
2021/10/31 09:41:50;;;;;;;17.48;3.33;;;;;;;16.29;69.29;99559.97;5085612;28;20059;-74
2021/10/31 09:46:43;;;;;;;15.43;2.97;;;;;;;16.08;68.56;99566.13;5103370;28;20043;-71
2021/10/31 09:49:10;;;;;;;17.70;2.97;;;;;;;15.71;69.13;99581.66;5103196;28;20091;-70
2021/10/31 09:51:36;;;;;;;14.88;2.90;;;;;;;15.32;69.92;99580.63;5103456;28;20100;-71
2021/10/31 09:54:03;;;;;;;20.42;3.53;;;;;;;15.37;69.61;99583.06;5103166;28;20348;-72
2021/10/31 09:56:28;;;;;;;11.90;2.88;;;;;;;15.20;70.19;99575.91;5103487;28;20106;-71
2021/10/31 09:58:58;;;;;;;11.25;3.80;;;;;;;15.42;70.21;99580.25;5103347;28;20020;-71
2021/10/31 10:04:30;;;;;;;15.75;3.40;;;;;;;16.04;68.52;99574.19;5103173;28;20043;-71
2021/10/31 10:06:57;;;;;;;19.33;3.03;;;;;;;16.17;67.50;99574.47;5103267;28;20024;-74
2021/10/31 10:09:23;;;;;;;14.02;3.05;;;;;;;15.94;67.72;99576.31;5084985;28;20024;-72
2021/10/31 10:11:49;;;;;;;35.78;4.03;;;;;;;15.49;67.46;99585.16;5103401;28;20047;-72
2021/10/31 10:14:24;;;;;;;19.40;3.63;;;;;;;14.92;69.11;99587.50;5103505;28;20035;-73
2021/10/31 10:17:14;;;;;;;14.13;3.17;;;;;;;14.93;71.79;99586.59;5103250;28;20020;-73
2021/10/31 10:19:52;;;;;;;14.15;3.75;;;;;;;15.30;70.58;99587.72;5102331;28;20040;-72
2021/10/31 10:22:20;;;;;;;14.32;3.00;;;;;;;15.19;70.18;99588.13;5103128;28;20019;-71
2021/10/31 10:24:55;;;;;;;17.05;3.42;;;;;;;15.03;70.47;99584.47;5102841;28;20024;-69
2021/10/31 10:27:24;;;;;;;17.42;4.05;;;;;;;14.87;71.26;99579.84;5102820;28;20032;-70
2021/10/31 10:29:51;;;;;;;16.65;3.42;;;;;;;14.80;71.30;99589.69;5102879;28;20034;-71
2021/10/31 10:32:21;;;;;;;14.68;3.55;;;;;;;14.56;71.68;99588.84;5103116;28;20054;-71
2021/10/31 10:34:52;;;;;;;17.38;4.13;;;;;;;14.53;71.04;99589.81;5102727;28;20083;-71
2021/10/31 10:37:22;;;;;;;20.45;3.63;;;;;;;14.46;71.85;99585.72;5102796;28;20027;-72
2021/10/31 10:40:02;;;;;;;15.40;3.35;;;;;;;14.36;71.38;99578.25;5102803;28;20020;-72
2021/10/31 10:42:33;;;;;;;14.70;3.72;;;;;;;14.34;70.81;99589.66;5102565;28;20027;-72
2021/10/31 10:45:08;;;;;;;20.67;3.60;;;;;;;14.40;71.64;99575.50;5102611;28;20020;-71
2021/10/31 10:47:39;;;;;;;18.90;3.67;;;;;;;14.80;69.98;99576.63;5102656;28;20472;-71
2021/10/31 10:50:06;;;;;;;15.35;3.40;;;;;;;15.03;68.89;99580.06;5102813;28;20016;-71
2021/10/31 10:52:42;;;;;;;13.93;3.42;;;;;;;15.60;68.16;99586.47;5102684;28;20020;-68
2021/10/31 10:55:15;;;;;;;14.30;3.40;;;;;;;16.35;65.91;99584.13;5102548;28;20047;-70
2021/10/31 10:57:44;;;;;;;15.13;3.42;;;;;;;16.22;65.41;99589.06;5102509;28;20020;-70
2021/10/31 11:00:17;;;;;;;9.57;2.95;;;;;;;16.17;65.94;99587.53;5102828;28;20020;-70
2021/10/31 11:02:43;;;;;;;13.68;2.88;;;;;;;15.92;65.79;99593.84;5102599;28;20020;-70
2021/10/31 11:05:11;;;;;;;11.20;2.80;;;;;;;15.19;67.38;99579.47;5103847;28;20088;-71
2021/10/31 11:07:46;;;;;;;25.38;3.65;;;;;;;14.81;68.18;99594.00;5106161;28;20124;-72
2021/10/31 11:10:19;;;;;;;12.35;3.30;;;;;;;14.81;70.09;99601.00;5106469;28;20065;-70
2021/10/31 11:12:48;;;;;;;15.27;3.47;;;;;;;15.43;68.51;99602.91;5106319;28;20020;-70
2021/10/31 11:15:15;;;;;;;15.20;3.00;;;;;;;15.58;68.32;99604.88;5105610;28;20020;-72
2021/10/31 11:17:42;;;;;;;22.98;4.45;;;;;;;15.34;68.62;99604.13;5121442;28;20081;-70
2021/10/31 11:20:11;;;;;;;16.40;3.85;;;;;;;15.06;68.83;99611.34;5106070;28;20028;-70
2021/10/31 11:22:37;;;;;;;11.88;3.92;;;;;;;14.95;69.36;99608.28;5106327;28;20028;-70
2021/10/31 11:25:03;;;;;;;19.02;4.50;;;;;;;14.91;69.39;99604.09;5106023;28;20015;-71
2021/10/31 11:27:31;;;;;;;18.65;4.80;;;;;;;14.95;69.21;99603.91;5105935;28;20028;-71
2021/10/31 11:29:58;;;;;;;12.20;4.50;;;;;;;14.73;69.30;99606.47;5106138;28;20228;-70
2021/10/31 11:32:25;;;;;;;16.17;4.32;;;;;;;14.30;69.81;99599.34;5105877;28;20020;-70